nws-alerts: Checking more than four warning/county codes can delay the loading of your pages. You should use a cron job to get the data.
EllijayWeather Station Historical Data
Daily Summary for July 17, 2019 Units:  English    Metric   Both
Daily Weekly Monthly Yearly Custom
  High: Low: Average:
Temperature: 84 °F 67.6 °F 73 °F
Dew Point: 76.5 °F 66.4 °F 71 °F
Humidity: 99% 74% 94%
Wind Speed: 2.9mph 0mph 0.1mph
Wind Gust: 11mph - -
Wind- - SSE
Pressure: 30.12 in 30.04 in -
Precipitation: 0.29 in    
Historical Graphs
 
 
Tabular Data for July 17, 2019
Time Temperature Dew Point Pressure Wind Wind Speed Wind Gust Humidity Rainfall Rate (Hourly) solar
00:04 71.4 °F 69.3 °F 30.10 in Calm     93% 0 in meteobridge W/m2
00:09 71.4 °F 69.3 °F 30.10 in Calm     93% 0 in meteobridge W/m2
00:14 71.2 °F 69.1 °F 30.10 in Calm     93% 0 in meteobridge W/m2
00:19 71.2 °F 69.1 °F 30.10 in Calm     93% 0 in meteobridge W/m2
00:24 71.2 °F 69.1 °F 30.10 in Calm     93% 0 in meteobridge W/m2
00:29 71.1 °F 68.9 °F 30.10 in Calm     93% 0 in meteobridge W/m2
00:34 71.1 °F 68.9 °F 30.10 in Calm     93% 0 in meteobridge W/m2
00:39 70.9 °F 69.1 °F 30.10 in Calm     94% 0 in meteobridge W/m2
00:44 70.9 °F 69.1 °F 30.10 in Calm     94% 0 in meteobridge W/m2
00:49 70.7 °F 68.9 °F 30.10 in Calm     94% 0 in meteobridge W/m2
00:54 70.7 °F 68.9 °F 30.10 in Calm     94% 0 in meteobridge W/m2
00:59 70.5 °F 68.7 °F 30.10 in Calm     94% 0 in meteobridge W/m2
01:04 70.5 °F 68.7 °F 30.10 in Calm     94% 0 in meteobridge W/m2
01:09 70.5 °F 68.7 °F 30.10 in Calm     94% 0 in meteobridge W/m2
01:14 70.5 °F 68.7 °F 30.10 in Calm     94% 0 in meteobridge W/m2
01:19 70.3 °F 68.5 °F 30.10 in Calm     94% 0 in meteobridge W/m2
01:24 70.3 °F 68.5 °F 30.09 in Calm     94% 0 in meteobridge W/m2
01:29 70.2 °F 68.4 °F 30.09 in Calm     94% 0 in meteobridge W/m2
01:34 70.2 °F 68.4 °F 30.09 in Calm     94% 0 in meteobridge W/m2
01:39 70.2 °F 68.7 °F 30.09 in Calm     95% 0 in meteobridge W/m2
01:44 70 °F 68.5 °F 30.09 in Calm     95% 0 in meteobridge W/m2
01:49 70 °F 68.5 °F 30.09 in Calm     95% 0 in meteobridge W/m2
01:54 70 °F 68.5 °F 30.09 in Calm     95% 0 in meteobridge W/m2
01:59 69.6 °F 68.2 °F 30.09 in Calm     95% 0 in meteobridge W/m2
02:04 69.6 °F 68.2 °F 30.09 in Calm     95% 0 in meteobridge W/m2
02:09 69.6 °F 68.2 °F 30.09 in Calm     95% 0 in meteobridge W/m2
02:14 69.6 °F 68.2 °F 30.09 in Calm     95% 0 in meteobridge W/m2
02:19 69.6 °F 68.2 °F 30.09 in Calm     95% 0 in meteobridge W/m2
02:24 69.4 °F 68 °F 30.09 in Calm     95% 0 in meteobridge W/m2
02:29 69.4 °F 68 °F 30.09 in Calm     95% 0 in meteobridge W/m2
02:34 69.4 °F 68 °F 30.09 in Calm     95% 0 in meteobridge W/m2
02:39 69.4 °F 68 °F 30.09 in Calm     95% 0 in meteobridge W/m2
02:44 69.3 °F 67.8 °F 30.09 in Calm     95% 0 in meteobridge W/m2
02:49 69.3 °F 67.8 °F 30.09 in Calm     95% 0 in meteobridge W/m2
02:54 69.3 °F 67.8 °F 30.09 in Calm     95% 0 in meteobridge W/m2
02:59 69.3 °F 67.8 °F 30.09 in Calm     95% 0 in meteobridge W/m2
03:04 69.1 °F 67.6 °F 30.09 in Calm     95% 0 in meteobridge W/m2
03:09 69.1 °F 67.6 °F 30.09 in Calm     95% 0 in meteobridge W/m2
03:14 68.9 °F 67.5 °F 30.09 in Calm     95% 0 in meteobridge W/m2
03:19 68.7 °F 67.5 °F 30.09 in Calm     96% 0 in meteobridge W/m2
03:24 68.7 °F 67.5 °F 30.09 in Calm     96% 0 in meteobridge W/m2
03:29 68.7 °F 67.5 °F 30.09 in Calm     96% 0 in meteobridge W/m2
03:34 68.7 °F 67.5 °F 30.09 in Calm     96% 0 in meteobridge W/m2
03:39 68.5 °F 67.3 °F 30.09 in Calm     96% 0 in meteobridge W/m2
03:44 68.5 °F 67.3 °F 30.09 in Calm     96% 0 in meteobridge W/m2
03:49 68.5 °F 67.3 °F 30.08 in Calm     96% 0 in meteobridge W/m2
03:54 68.5 °F 67.3 °F 30.08 in Calm     96% 0 in meteobridge W/m2
03:59 68.4 °F 67.1 °F 30.08 in Calm     96% 0 in meteobridge W/m2
04:04 68.4 °F 67.1 °F 30.08 in Calm     96% 0 in meteobridge W/m2
04:09 68.4 °F 67.1 °F 30.08 in Calm     96% 0 in meteobridge W/m2
04:14 68.4 °F 67.1 °F 30.08 in Calm     96% 0 in meteobridge W/m2
04:19 68.2 °F 66.9 °F 30.08 in Calm     96% 0 in meteobridge W/m2
04:24 68.2 °F 66.9 °F 30.08 in Calm     96% 0 in meteobridge W/m2
04:29 68.2 °F 66.9 °F 30.08 in Calm     96% 0 in meteobridge W/m2
04:34 68.2 °F 66.9 °F 30.08 in Calm     96% 0 in meteobridge W/m2
04:39 68.2 °F 66.9 °F 30.08 in Calm     96% 0 in meteobridge W/m2
04:44 68.2 °F 66.9 °F 30.09 in Calm     96% 0 in meteobridge W/m2
04:49 68 °F 66.7 °F 30.09 in Calm     96% 0 in meteobridge W/m2
04:54 68 °F 66.7 °F 30.08 in Calm     96% 0 in meteobridge W/m2
04:59 67.8 °F 66.6 °F 30.08 in Calm     96% 0 in meteobridge W/m2
05:04 68 °F 66.7 °F 30.09 in Calm     96% 0 in meteobridge W/m2
05:09 67.8 °F 66.6 °F 30.08 in Calm     96% 0 in meteobridge W/m2
05:14 67.8 °F 66.6 °F 30.09 in Calm     96% 0 in meteobridge W/m2
05:19 67.8 °F 66.6 °F 30.09 in Calm     96% 0 in meteobridge W/m2
05:24 67.6 °F 66.4 °F 30.09 in Calm     96% 0 in meteobridge W/m2
05:29 67.6 °F 66.4 °F 30.09 in Calm     96% 0 in meteobridge W/m2
05:34 67.6 °F 66.4 °F 30.09 in Calm     96% 0 in meteobridge W/m2
05:39 67.6 °F 66.7 °F 30.09 in Calm     97% 0 in meteobridge W/m2
05:44 67.6 °F 66.7 °F 30.09 in Calm     97% 0 in meteobridge W/m2
05:49 67.6 °F 66.7 °F 30.09 in Calm     97% 0 in meteobridge W/m2
05:54 67.6 °F 66.7 °F 30.09 in Calm     97% 0 in meteobridge W/m2
05:59 67.6 °F 66.7 °F 30.09 in Calm     97% 0 in meteobridge W/m2
06:04 67.6 °F 66.7 °F 30.09 in Calm     97% 0 in meteobridge W/m2
06:09 67.6 °F 66.7 °F 30.09 in Calm     97% 0 in meteobridge W/m2
06:14 67.8 °F 66.9 °F 30.09 in Calm     97% 0 in meteobridge W/m2
06:19 67.8 °F 66.9 °F 30.09 in Calm     97% 0 in meteobridge W/m2
06:24 67.8 °F 66.9 °F 30.09 in Calm     97% 0 in meteobridge W/m2
06:29 67.8 °F 66.9 °F 30.09 in Calm     97% 0 in meteobridge W/m2
06:34 67.8 °F 66.9 °F 30.09 in Calm     97% 0 in meteobridge W/m2
06:39 67.8 °F 66.9 °F 30.09 in Calm     97% 0 in meteobridge W/m2
06:44 67.8 °F 66.9 °F 30.09 in Calm     97% 0 in meteobridge W/m2
06:49 67.8 °F 66.9 °F 30.09 in Calm     97% 0 in meteobridge W/m2
06:54 67.8 °F 66.9 °F 30.09 in Calm     97% 0 in meteobridge W/m2
06:59 67.8 °F 66.9 °F 30.09 in Calm     97% 0 in meteobridge W/m2
07:04 67.8 °F 66.9 °F 30.09 in Calm     97% 0 in meteobridge W/m2
07:09 67.8 °F 66.9 °F 30.09 in Calm     97% 0 in meteobridge W/m2
07:14 67.8 °F 66.9 °F 30.09 in Calm     97% 0 in meteobridge W/m2
07:19 67.8 °F 66.9 °F 30.09 in Calm     97% 0 in meteobridge W/m2
07:24 68 °F 67.1 °F 30.09 in Calm     97% 0 in meteobridge W/m2
07:29 68.2 °F 67.3 °F 30.09 in Calm     97% 0 in meteobridge W/m2
07:34 68.2 °F 67.3 °F 30.09 in Calm     97% 0 in meteobridge W/m2
07:39 68.2 °F 67.3 °F 30.09 in Calm     97% 0 in meteobridge W/m2
07:44 68.4 °F 67.5 °F 30.09 in Calm     97% 0 in meteobridge W/m2
07:49 68.4 °F 67.5 °F 30.09 in Calm     97% 0 in meteobridge W/m2
07:54 68.5 °F 67.6 °F 30.09 in Calm     97% 0 in meteobridge W/m2
07:59 68.5 °F 67.6 °F 30.09 in Calm     97% 0 in meteobridge W/m2
08:04 68.7 °F 67.8 °F 30.09 in Calm     97% 0 in meteobridge W/m2
08:09 69.1 °F 68.2 °F 30.09 in Calm     97% 0 in meteobridge W/m2
08:14 69.1 °F 68.2 °F 30.09 in Calm     97% 0 in meteobridge W/m2
08:19 69.3 °F 68.4 °F 30.09 in Calm     97% 0 in meteobridge W/m2
08:24 69.6 °F 68.7 °F 30.10 in Calm     97% 0 in meteobridge W/m2
08:29 70 °F 69.1 °F 30.10 in Calm     97% 0 in meteobridge W/m2
08:34 70.2 °F 69.6 °F 30.10 in Calm     98% 0 in meteobridge W/m2
08:39 70.5 °F 70 °F 30.10 in Calm     98% 0 in meteobridge W/m2
08:44 71.1 °F 70.5 °F 30.10 in Calm     98% 0 in meteobridge W/m2
08:49 71.8 °F 70.9 °F 30.10 in Calm     97% 0 in meteobridge W/m2
08:54 72.3 °F 71.1 °F 30.11 in Calm   2 mph 96% 0 in meteobridge W/m2
08:59 73.2 °F 71.8 °F 30.11 in Calm     95% 0 in meteobridge W/m2
09:04 73.8 °F 72 °F 30.11 in Calm     94% 0 in meteobridge W/m2
09:09 74.1 °F 72.7 °F 30.11 in Calm   1 mph 95% 0 in meteobridge W/m2
09:14 74.7 °F 72.1 °F 30.11 in Calm     92% 0 in meteobridge W/m2
09:19 74.8 °F 72.7 °F 30.11 in Calm     93% 0 in meteobridge W/m2
09:24 75.4 °F 72.5 °F 30.11 in Calm   1 mph 91% 0 in meteobridge W/m2
09:29 75.9 °F 72.5 °F 30.11 in Calm   1 mph 89% 0 in meteobridge W/m2
09:34 76.6 °F 73.4 °F 30.11 in Calm   1 mph 90% 0 in meteobridge W/m2
09:39 77 °F 73.6 °F 30.11 in Calm   1 mph 89% 0 in meteobridge W/m2
09:44 77.4 °F 73.6 °F 30.11 in Calm   5 mph 88% 0 in meteobridge W/m2
09:49 77.7 °F 74.3 °F 30.11 in Calm   1 mph 89% 0 in meteobridge W/m2
09:54 78.1 °F 73.6 °F 30.11 in Calm   3 mph 86% 0 in meteobridge W/m2
09:59 78.4 °F 73.9 °F 30.12 in Calm   1 mph 86% 0 in meteobridge W/m2
10:04 79 °F 73.8 °F 30.11 in NNE 2.9 mph 4 mph 84% 0 in meteobridge W/m2
10:09 79.2 °F 73.9 °F 30.11 in Calm   4 mph 84% 0 in meteobridge W/m2
10:14 79.3 °F 73.8 °F 30.12 in Calm   6 mph 83% 0 in meteobridge W/m2
10:19 79.5 °F 74.3 °F 30.12 in Calm   3 mph 84% 0 in meteobridge W/m2
10:24 79.3 °F 73.8 °F 30.12 in Calm     83% 0 in meteobridge W/m2
10:29 79.3 °F 74.1 °F 30.12 in Calm     84% 0 in meteobridge W/m2
10:34 79.5 °F 73.9 °F 30.12 in Calm   2 mph 83% 0 in meteobridge W/m2
10:39 79.5 °F 74.3 °F 30.12 in WNW 2.9 mph 6 mph 84% 0 in meteobridge W/m2
10:44 79.5 °F 73.9 °F 30.12 in Calm   3 mph 83% 0 in meteobridge W/m2
10:49 79.5 °F 74.3 °F 30.12 in Calm   2 mph 84% 0 in meteobridge W/m2
10:54 79.5 °F 73.9 °F 30.12 in Calm     83% 0 in meteobridge W/m2
10:59 79.9 °F 74.7 °F 30.12 in Calm     84% 0 in meteobridge W/m2
11:04 79.9 °F 74.7 °F 30.12 in Calm     84% 0 in meteobridge W/m2
11:09 80.1 °F 74.5 °F 30.12 in Calm   3 mph 83% 0 in meteobridge W/m2
11:14 80.6 °F 74.7 °F 30.12 in Calm   5 mph 82% 0 in meteobridge W/m2
11:19 81 °F 75 °F 30.12 in Calm   3 mph 82% 0 in meteobridge W/m2
11:24 81.3 °F 74.1 °F 30.11 in Calm   5 mph 79% 0 in meteobridge W/m2
11:29 81.7 °F 74.5 °F 30.11 in Calm   1 mph 79% 0 in meteobridge W/m2
11:34 82.2 °F 74.7 °F 30.11 in Calm   2 mph 78% 0 in meteobridge W/m2
11:39 82.8 °F 74.5 °F 30.10 in North 0.9 mph 6 mph 76% 0 in meteobridge W/m2
11:44 82.9 °F 74.1 °F 30.10 in East 0.9 mph 5 mph 75% 0 in meteobridge W/m2
11:49 83.1 °F 73.9 °F 30.10 in Calm   5 mph 74% 0 in meteobridge W/m2
11:54 83.5 °F 74.7 °F 30.10 in NE 0.9 mph 3 mph 75% 0 in meteobridge W/m2
11:59 83.5 °F 74.7 °F 30.09 in Calm   5 mph 75% 0 in meteobridge W/m2
12:04 83.7 °F 74.5 °F 30.09 in ENE 0.9 mph 2 mph 74% 0 in meteobridge W/m2
12:09 84 °F 75.6 °F 30.09 in NE 2 mph 2 mph 76% 0 in meteobridge W/m2
12:14 83.7 °F 75.2 °F 30.09 in Calm   1 mph 76% 0 in meteobridge W/m2
12:19 83.1 °F 75.2 °F 30.09 in Calm     77% 0 in meteobridge W/m2
12:24 82.2 °F 75.7 °F 30.09 in Calm   1 mph 81% 0.01 in meteobridge W/m2
12:29 80.1 °F 74.5 °F 30.09 in Calm   5 mph 83% 0.07 in meteobridge W/m2
12:34 78.6 °F 74.1 °F 30.09 in Calm     86% 0.07 in meteobridge W/m2
12:39 77.9 °F 74.5 °F 30.09 in Calm     89% 0.07 in meteobridge W/m2
12:44 77.4 °F 74.5 °F 30.09 in Calm   1 mph 91% 0.07 in meteobridge W/m2
12:49 77.4 °F 75.2 °F 30.09 in Calm     93% 0.07 in meteobridge W/m2
12:54 77.4 °F 75.7 °F 30.10 in Calm     95% 0.07 in meteobridge W/m2
12:59 77.5 °F 75.7 °F 30.10 in Calm     94% 0.07 in meteobridge W/m2
13:04 77.5 °F 75.7 °F 30.10 in Calm     94% 0.07 in meteobridge W/m2
13:09 77.5 °F 75.7 °F 30.11 in Calm   1 mph 94% 0.07 in meteobridge W/m2
13:14 77.4 °F 75.2 °F 30.10 in Calm   6 mph 93% 0.07 in meteobridge W/m2
13:19 76.8 °F 73.4 °F 30.12 in Calm   11 mph 89% 0.14 in meteobridge W/m2
13:24 75.7 °F 72.7 °F 30.12 in Calm   6 mph 90% 0.14 in meteobridge W/m2
13:29 75 °F 72.1 °F 30.11 in Calm   4 mph 91% 0.11 in meteobridge W/m2
13:34 74.5 °F 72.3 °F 30.11 in WNW 0.9 mph 3 mph 93% 0.09 in meteobridge W/m2
13:39 74.1 °F 72.3 °F 30.11 in Calm   1 mph 94% 0.09 in meteobridge W/m2
13:44 73.9 °F 72.1 °F 30.11 in Calm   4 mph 94% 0.09 in meteobridge W/m2
13:49 73.8 °F 72 °F 30.10 in Calm     94% 0.09 in meteobridge W/m2
13:54 73.6 °F 71.8 °F 30.10 in Calm     94% 0.09 in meteobridge W/m2
13:59 73.6 °F 72.3 °F 30.10 in Calm     96% 0.09 in meteobridge W/m2
14:04 73.8 °F 72.5 °F 30.10 in Calm     96% 0.09 in meteobridge W/m2
14:09 73.8 °F 72.5 °F 30.10 in Calm     96% 0.09 in meteobridge W/m2
14:14 73.8 °F 72.5 °F 30.10 in Calm     96% 0.09 in meteobridge W/m2
14:19 73.8 °F 72.5 °F 30.11 in Calm     96% 0.08 in meteobridge W/m2
14:24 73.8 °F 72.5 °F 30.11 in Calm     96% 0.01 in meteobridge W/m2
14:29 73.9 °F 73 °F 30.10 in Calm     97% 0 in meteobridge W/m2
14:34 74.1 °F 73.2 °F 30.10 in Calm     97% 0 in meteobridge W/m2
14:39 73.9 °F 72.7 °F 30.10 in Calm     96% 0 in meteobridge W/m2
14:44 74.1 °F 73.2 °F 30.10 in Calm     97% 0 in meteobridge W/m2
14:49 74.5 °F 73.6 °F 30.09 in Calm     97% 0 in meteobridge W/m2
14:54 74.7 °F 73.8 °F 30.09 in Calm     97% 0 in meteobridge W/m2
14:59 74.8 °F 73.9 °F 30.08 in Calm     97% 0 in meteobridge W/m2
15:04 75.2 °F 74.3 °F 30.08 in Calm     97% 0 in meteobridge W/m2
15:09 75.4 °F 74.5 °F 30.08 in Calm     97% 0 in meteobridge W/m2
15:14 75.7 °F 74.5 °F 30.08 in Calm     96% 0 in meteobridge W/m2
15:19 75.9 °F 74.7 °F 30.08 in Calm     96% 0 in meteobridge W/m2
15:24 76.5 °F 75.2 °F 30.08 in Calm     96% 0 in meteobridge W/m2
15:29 76.8 °F 75.6 °F 30.07 in Calm   1 mph 96% 0 in meteobridge W/m2
15:34 77.4 °F 75.7 °F 30.08 in Calm     95% 0 in meteobridge W/m2
15:39 77.9 °F 75.4 °F 30.08 in Calm   1 mph 92% 0 in meteobridge W/m2
15:44 78.3 °F 74.5 °F 30.08 in Calm   7 mph 88% 0 in meteobridge W/m2
15:49 78.8 °F 75 °F 30.07 in Calm     88% 0 in meteobridge W/m2
15:54 79 °F 74.8 °F 30.07 in Calm     87% 0 in meteobridge W/m2
15:59 79 °F 76.5 °F 30.07 in North 0.9 mph 1 mph 92% 0 in meteobridge W/m2
16:04 77.9 °F 73.8 °F 30.08 in Calm   8 mph 87% 0.03 in meteobridge W/m2
16:09 75.7 °F 71.6 °F 30.07 in NNW 2 mph 4 mph 87% 0.06 in meteobridge W/m2
16:14 74.1 °F 71.1 °F 30.07 in NE 0.9 mph 1 mph 90% 0.07 in meteobridge W/m2
16:19 73.6 °F 71.4 °F 30.07 in Calm   1 mph 93% 0.07 in meteobridge W/m2
16:24 73 °F 71.2 °F 30.08 in Calm   2 mph 94% 0.07 in meteobridge W/m2
16:29 72.9 °F 71.4 °F 30.07 in Calm     95% 0.07 in meteobridge W/m2
16:34 72.7 °F 71.4 °F 30.08 in Calm     96% 0.07 in meteobridge W/m2
16:39 72.7 °F 71.8 °F 30.08 in Calm     97% 0.07 in meteobridge W/m2
16:44 73 °F 72.5 °F 30.07 in Calm     98% 0.12 in meteobridge W/m2
16:49 73.6 °F 73.2 °F 30.07 in Calm     99% 0.12 in meteobridge W/m2
16:54 73.9 °F 73.4 °F 30.07 in Calm     98% 0.12 in meteobridge W/m2
16:59 74.3 °F 73.9 °F 30.07 in Calm     99% 0.12 in meteobridge W/m2
17:04 74.3 °F 73.8 °F 30.07 in Calm     98% 0.09 in meteobridge W/m2
17:09 74.7 °F 74.1 °F 30.07 in Calm     98% 0.06 in meteobridge W/m2
17:14 74.8 °F 74.3 °F 30.07 in Calm     98% 0.05 in meteobridge W/m2
17:19 75 °F 74.5 °F 30.07 in Calm     98% 0.05 in meteobridge W/m2
17:24 75 °F 74.5 °F 30.07 in Calm     98% 0.05 in meteobridge W/m2
17:29 75 °F 74.1 °F 30.06 in Calm     97% 0.05 in meteobridge W/m2
17:34 75 °F 73.4 °F 30.06 in Calm   1 mph 95% 0.05 in meteobridge W/m2
17:39 75 °F 73.8 °F 30.06 in Calm     96% 0.04 in meteobridge W/m2
17:44 75 °F 73.4 °F 30.06 in Calm     95% 0 in meteobridge W/m2
17:49 75 °F 73.8 °F 30.06 in Calm     96% 0 in meteobridge W/m2
17:54 74.8 °F 73.6 °F 30.06 in Calm     96% 0 in meteobridge W/m2
17:59 74.7 °F 73.2 °F 30.05 in Calm     95% 0 in meteobridge W/m2
18:04 74.7 °F 73.2 °F 30.05 in Calm     95% 0 in meteobridge W/m2
18:09 74.7 °F 73.2 °F 30.05 in Calm     95% 0 in meteobridge W/m2
18:14 74.7 °F 73.4 °F 30.05 in Calm     96% 0 in meteobridge W/m2
18:19 74.7 °F 73.4 °F 30.04 in Calm     96% 0 in meteobridge W/m2
18:24 74.8 °F 73.9 °F 30.05 in Calm     97% 0 in meteobridge W/m2
18:29 74.8 °F 73.9 °F 30.05 in Calm     97% 0 in meteobridge W/m2
18:34 74.8 °F 73.9 °F 30.05 in Calm     97% 0 in meteobridge W/m2
18:39 75 °F 73.8 °F 30.05 in Calm     96% 0 in meteobridge W/m2
18:44 75 °F 74.1 °F 30.05 in Calm     97% 0 in meteobridge W/m2
18:49 75.2 °F 73.9 °F 30.05 in Calm     96% 0 in meteobridge W/m2
18:54 75 °F 73.8 °F 30.04 in Calm     96% 0 in meteobridge W/m2
18:59 75 °F 73.8 °F 30.05 in Calm     96% 0 in meteobridge W/m2
19:04 74.8 °F 73.6 °F 30.05 in Calm     96% 0 in meteobridge W/m2
19:09 74.7 °F 73.2 °F 30.05 in Calm     95% 0 in meteobridge W/m2
19:14 74.5 °F 72.3 °F 30.06 in Calm   1 mph 93% 0 in meteobridge W/m2
19:19 74.5 °F 73 °F 30.05 in Calm     95% 0 in meteobridge W/m2
19:24 74.1 °F 72 °F 30.06 in Calm     93% 0 in meteobridge W/m2
19:29 74.1 °F 72 °F 30.05 in Calm   1 mph 93% 0 in meteobridge W/m2
19:34 73.9 °F 72.1 °F 30.05 in Calm     94% 0 in meteobridge W/m2
19:39 73.9 °F 72.1 °F 30.05 in Calm     94% 0.01 in meteobridge W/m2
19:44 73.8 °F 72 °F 30.05 in Calm     94% 0.01 in meteobridge W/m2
19:49 73.6 °F 72.1 °F 30.05 in Calm     95% 0.01 in meteobridge W/m2
19:54 73.4 °F 72 °F 30.05 in Calm     95% 0.01 in meteobridge W/m2
19:59 73.4 °F 72.1 °F 30.05 in Calm     96% 0.01 in meteobridge W/m2
20:04 73.4 °F 72.1 °F 30.05 in Calm     96% 0.01 in meteobridge W/m2
20:09 73.4 °F 72 °F 30.05 in Calm     95% 0.01 in meteobridge W/m2
20:14 73.4 °F 72.1 °F 30.05 in Calm     96% 0.01 in meteobridge W/m2
20:19 73.2 °F 72 °F 30.05 in Calm     96% 0.01 in meteobridge W/m2
20:24 73.2 °F 72 °F 30.05 in Calm     96% 0.01 in meteobridge W/m2
20:29 73.2 °F 72 °F 30.05 in Calm     96% 0.01 in meteobridge W/m2
20:34 73.2 °F 72 °F 30.05 in Calm     96% 0.01 in meteobridge W/m2
20:39 73.2 °F 72 °F 30.05 in Calm     96% 0 in meteobridge W/m2
20:44 73 °F 71.8 °F 30.05 in Calm     96% 0 in meteobridge W/m2
20:49 72.9 °F 71.6 °F 30.05 in Calm     96% 0 in meteobridge W/m2
20:54 72.9 °F 72 °F 30.05 in Calm     97% 0 in meteobridge W/m2
20:59 72.9 °F 72 °F 30.05 in Calm     97% 0 in meteobridge W/m2
21:04 72.7 °F 71.4 °F 30.05 in Calm     96% 0 in meteobridge W/m2
21:09 72.7 °F 71.8 °F 30.05 in Calm     97% 0 in meteobridge W/m2
21:14 72.5 °F 71.6 °F 30.06 in Calm     97% 0 in meteobridge W/m2
21:19 72.3 °F 71.4 °F 30.06 in Calm     97% 0 in meteobridge W/m2
21:24 72.3 °F 71.4 °F 30.06 in Calm     97% 0 in meteobridge W/m2
21:29 72.1 °F 71.2 °F 30.06 in Calm     97% 0 in meteobridge W/m2
21:34 72.1 °F 71.2 °F 30.07 in Calm     97% 0 in meteobridge W/m2
21:39 72.1 °F 71.2 °F 30.07 in Calm     97% 0 in meteobridge W/m2
21:44 72 °F 71.1 °F 30.07 in Calm     97% 0 in meteobridge W/m2
21:49 72 °F 71.1 °F 30.08 in Calm     97% 0 in meteobridge W/m2
21:54 72 °F 71.1 °F 30.08 in Calm     97% 0 in meteobridge W/m2
21:59 72 °F 71.4 °F 30.08 in Calm     98% 0 in meteobridge W/m2
22:04 71.8 °F 71.2 °F 30.08 in Calm     98% 0 in meteobridge W/m2
22:09 71.8 °F 71.2 °F 30.09 in Calm     98% 0 in meteobridge W/m2
22:14 71.6 °F 71.1 °F 30.09 in Calm     98% 0 in meteobridge W/m2
22:19 71.4 °F 70.9 °F 30.09 in Calm     98% 0 in meteobridge W/m2
22:24 71.4 °F 70.9 °F 30.09 in Calm     98% 0 in meteobridge W/m2
22:29 71.4 °F 70.9 °F 30.09 in Calm     98% 0 in meteobridge W/m2
22:34 71.4 °F 70.9 °F 30.09 in Calm     98% 0 in meteobridge W/m2
22:39 71.4 °F 70.9 °F 30.08 in Calm     98% 0 in meteobridge W/m2
22:44 71.2 °F 70.7 °F 30.08 in Calm     98% 0 in meteobridge W/m2
22:49 71.2 °F 70.7 °F 30.08 in Calm     98% 0 in meteobridge W/m2
22:54 71.2 °F 70.7 °F 30.09 in Calm     98% 0 in meteobridge W/m2
22:59 71.1 °F 70.5 °F 30.09 in Calm     98% 0 in meteobridge W/m2
23:04 71.1 °F 70.5 °F 30.09 in Calm     98% 0 in meteobridge W/m2
23:09 70.9 °F 70.3 °F 30.09 in Calm     98% 0 in meteobridge W/m2
23:14 70.9 °F 70.3 °F 30.09 in Calm     98% 0 in meteobridge W/m2
23:19 70.9 °F 70.3 °F 30.09 in Calm     98% 0 in meteobridge W/m2
23:24 70.7 °F 70.2 °F 30.09 in Calm     98% 0 in meteobridge W/m2
23:29 70.5 °F 70 °F 30.10 in Calm     98% 0 in meteobridge W/m2
23:34 70.5 °F 70 °F 30.10 in Calm     98% 0 in meteobridge W/m2
23:39 70.5 °F 70 °F 30.10 in Calm     98% 0 in meteobridge W/m2
23:44 70.5 °F 70 °F 30.10 in Calm     98% 0 in meteobridge W/m2
23:49 70.5 °F 70 °F 30.10 in Calm     98% 0 in meteobridge W/m2
23:54 70.5 °F 70 °F 30.10 in Calm     98% 0 in meteobridge W/m2
23:59 70.3 °F 69.8 °F 30.10 in Calm     98% 0 in meteobridge W/m2
EllijayWeather
Compliments of Weather Underground - 2.5 mb